Time;durP1;ratioP1;P1;durP2;ratioP2;P2;SDS_P1;SDS_P2;PMS_P1;PMS_P2;Temp;Humidity;BMP_temperature;BMP_pressure;BME280_temperature;BME280_humidity;BME280_pressure;Samples;Min_cycle;Max_cycle;Signal;HPM_P1;HPM_P2
2022/04/13 00:01:28;;;;;;;72.65;35.72;;;9.00;99.90;;;;;;5051816;28;20021;-79
2022/04/13 00:03:53;;;;;;;71.90;32.05;;;9.00;99.90;;;;;;5051652;28;20013;-80
2022/04/13 00:06:19;;;;;;;77.80;32.83;;;8.90;99.90;;;;;;5051805;28;20017;-79
2022/04/13 00:08:45;;;;;;;55.35;28.30;;;8.90;99.90;;;;;;5055085;28;20035;-78
2022/04/13 00:11:11;;;;;;;56.35;27.30;;;8.90;99.90;;;;;;5053922;28;20031;-79
2022/04/13 00:13:37;;;;;;;52.45;25.00;;;8.90;99.90;;;;;;5054967;28;20056;-79
2022/04/13 00:16:03;;;;;;;53.40;23.45;;;8.90;99.90;;;;;;5052853;28;20083;-79
2022/04/13 00:18:28;;;;;;;45.38;25.50;;;8.90;99.90;;;;;;5053776;28;20460;-78
2022/04/13 00:20:54;;;;;;;50.67;24.33;;;8.80;99.90;;;;;;5054946;28;20136;-78
2022/04/13 00:23:20;;;;;;;56.30;27.83;;;8.80;99.90;;;;;;5053705;28;20028;-78
2022/04/13 00:25:47;;;;;;;59.47;29.20;;;8.80;99.90;;;;;;5055195;28;20440;-80
2022/04/13 00:28:14;;;;;;;59.65;30.52;;;8.80;99.90;;;;;;5054564;28;20021;-79
2022/04/13 00:30:40;;;;;;;56.15;29.20;;;8.90;99.90;;;;;;5054745;28;20379;-79
2022/04/13 00:33:07;;;;;;;58.05;30.60;;;8.80;99.90;;;;;;5054897;28;20128;-79
2022/04/13 00:35:33;;;;;;;62.83;28.92;;;8.80;99.90;;;;;;5053346;28;20032;-80
2022/04/13 00:37:58;;;;;;;58.28;29.67;;;8.70;99.90;;;;;;5055140;28;20021;-81
2022/04/13 00:40:24;;;;;;;63.60;32.65;;;8.70;99.90;;;;;;5056156;28;20025;-81
2022/04/13 00:42:50;;;;;;;66.82;32.30;;;8.60;99.90;;;;;;5054619;28;20025;-81
2022/04/13 00:45:16;;;;;;;63.60;32.53;;;8.50;99.90;;;;;;5056198;28;20056;-80
2022/04/13 00:47:41;;;;;;;66.63;34.45;;;8.50;99.90;;;;;;5056027;28;20371;-78
2022/04/13 00:50:09;;;;;;;77.88;33.72;;;8.40;99.90;;;;;;5055816;28;20032;-80
2022/04/13 00:52:38;;;;;;;71.57;34.47;;;8.40;99.90;;;;;;5055822;28;20597;-80
2022/04/13 00:55:07;;;;;;;72.18;33.20;;;8.30;99.90;;;;;;5056118;28;20028;-80
2022/04/13 00:57:36;;;;;;;67.68;32.00;;;8.30;99.90;;;;;;5055324;28;20510;-79
2022/04/13 01:00:05;;;;;;;67.63;31.23;;;8.30;99.90;;;;;;5055614;28;20045;-79
2022/04/13 01:02:32;;;;;;;68.28;34.05;;;8.30;99.90;;;;;;5055793;28;20057;-78
2022/04/13 01:05:04;;;;;;;95.40;43.13;;;8.20;99.90;;;;;;5055681;28;20471;-78
2022/04/13 01:07:30;;;;;;;63.13;29.60;;;8.20;99.90;;;;;;5055595;28;20071;-78
2022/04/13 01:09:57;;;;;;;62.90;29.95;;;8.20;99.90;;;;;;5054034;28;20029;-78
2022/04/13 01:12:23;;;;;;;68.53;21.90;;;8.10;99.90;;;;;;5054341;28;20025;-79
2022/04/13 01:14:49;;;;;;;69.05;23.92;;;8.10;99.90;;;;;;5055643;28;20063;-79
2022/04/13 01:17:15;;;;;;;34.08;15.00;;;8.10;99.90;;;;;;5053942;28;20037;-78
2022/04/13 01:19:41;;;;;;;33.28;15.38;;;8.00;99.90;;;;;;5055003;28;20102;-78
2022/04/13 01:22:32;;;;;;;37.22;14.85;;;8.00;99.90;;;;;;5055356;28;20486;-79
2022/04/13 01:24:58;;;;;;;32.08;14.82;;;7.90;99.90;;;;;;5053523;28;20438;-79
2022/04/13 01:27:26;;;;;;;29.63;13.90;;;7.90;99.90;;;;;;5055619;28;20024;-78
2022/04/13 01:29:54;;;;;;;32.47;13.80;;;7.80;99.90;;;;;;5053953;28;20041;-78
2022/04/13 01:32:20;;;;;;;28.45;12.90;;;7.80;99.90;;;;;;5054958;28;20096;-79
2022/04/13 01:34:51;;;;;;;26.75;12.38;;;7.80;99.90;;;;;;5053768;28;20029;-79
2022/04/13 01:37:17;;;;;;;22.58;12.80;;;7.70;99.90;;;;;;5055108;28;20025;-79
2022/04/13 01:39:43;;;;;;;23.15;13.50;;;7.80;99.90;;;;;;5053531;28;20061;-80
2022/04/13 01:42:09;;;;;;;22.80;12.25;;;7.70;99.90;;;;;;5054892;28;20447;-80
2022/04/13 01:44:35;;;;;;;21.05;12.13;;;7.70;99.90;;;;;;5054740;28;20479;-78
2022/04/13 01:47:01;;;;;;;28.63;13.68;;;7.60;99.90;;;;;;5054928;28;20025;-79
2022/04/13 01:49:26;;;;;;;28.92;14.05;;;7.60;99.90;;;;;;5054454;28;20025;-78
2022/04/13 01:51:52;;;;;;;25.95;13.25;;;7.60;99.90;;;;;;5054330;28;20460;-79
2022/04/13 01:54:18;;;;;;;25.15;14.05;;;7.60;99.90;;;;;;5055014;28;20487;-79
2022/04/13 01:56:44;;;;;;;21.27;13.27;;;7.60;99.90;;;;;;5054623;28;20036;-79
2022/04/13 01:59:10;;;;;;;26.58;13.70;;;7.50;99.90;;;;;;5052769;28;20052;-80
2022/04/13 02:01:43;;;;;;;30.60;13.75;;;7.50;99.90;;;;;;5054564;28;20036;-80
2022/04/13 02:04:20;;;;;;;29.40;14.25;;;7.50;99.90;;;;;;5053331;28;20029;-79
2022/04/13 02:06:47;;;;;;;26.60;14.38;;;7.50;99.90;;;;;;5054421;28;20042;-77
2022/04/13 02:09:13;;;;;;;26.50;13.70;;;7.50;99.90;;;;;;5053222;28;20371;-78
2022/04/13 02:11:39;;;;;;;26.65;14.10;;;7.50;99.90;;;;;;5054705;28;20456;-79
2022/04/13 02:14:05;;;;;;;33.80;15.10;;;7.50;99.90;;;;;;5054408;28;20250;-77
2022/04/13 02:16:31;;;;;;;43.05;16.17;;;7.40;99.90;;;;;;5054247;28;20468;-78
2022/04/13 02:18:57;;;;;;;42.15;16.55;;;7.40;99.90;;;;;;5052987;28;20047;-78
2022/04/13 02:21:22;;;;;;;44.47;17.92;;;7.40;99.90;;;;;;5053020;28;20379;-79
2022/04/13 02:23:48;;;;;;;45.47;18.63;;;7.40;99.90;;;;;;5054100;28;20021;-80
2022/04/13 02:26:14;;;;;;;46.97;17.67;;;7.40;99.90;;;;;;5054145;28;20060;-79
2022/04/13 02:28:42;;;;;;;44.92;16.35;;;7.40;99.90;;;;;;5052656;28;20021;-79
2022/04/13 02:31:07;;;;;;;42.50;17.77;;;7.40;99.90;;;;;;5053562;28;20025;-79
2022/04/13 02:33:33;;;;;;;44.72;17.92;;;7.40;99.90;;;;;;5053920;28;20032;-78
2022/04/13 02:35:59;;;;;;;40.35;15.90;;;7.40;99.90;;;;;;5054279;28;20112;-78
2022/04/13 02:38:26;;;;;;;53.55;17.13;;;7.40;99.90;;;;;;5052595;28;20036;-79
2022/04/13 02:40:52;;;;;;;44.30;18.15;;;7.40;99.90;;;;;;5053707;28;20033;-79
2022/04/13 02:43:18;;;;;;;61.20;19.08;;;7.40;99.90;;;;;;5053679;28;20100;-79
2022/04/13 02:45:44;;;;;;;67.65;20.75;;;7.40;99.90;;;;;;5053543;28;20100;-80
2022/04/13 02:48:10;;;;;;;68.07;23.05;;;7.30;99.90;;;;;;5053701;28;20029;-79
2022/04/13 02:50:35;;;;;;;81.55;26.77;;;7.30;99.90;;;;;;5053716;28;20032;-79
2022/04/13 02:53:01;;;;;;;81.47;28.67;;;7.30;99.90;;;;;;5053811;28;20352;-80
2022/04/13 02:55:27;;;;;;;84.45;27.35;;;7.20;99.90;;;;;;5053830;28;20021;-79
2022/04/13 02:57:53;;;;;;;77.50;28.40;;;7.20;99.90;;;;;;5053655;28;20032;-78
2022/04/13 03:00:18;;;;;;;77.90;26.75;;;7.10;99.90;;;;;;5053213;28;20045;-79
2022/04/13 03:02:44;;;;;;;76.53;28.02;;;7.10;99.90;;;;;;5053542;28;20025;-80
2022/04/13 03:05:10;;;;;;;88.28;35.17;;;7.10;99.90;;;;;;5053332;28;20064;-79
2022/04/13 03:07:36;;;;;;;66.97;26.45;;;7.00;99.90;;;;;;5053642;28;20033;-79
2022/04/13 03:10:04;;;;;;;61.90;26.40;;;7.00;99.90;;;;;;5052132;28;20033;-79
2022/04/13 03:12:30;;;;;;;54.63;24.70;;;6.90;99.90;;;;;;5053456;28;20112;-79
2022/04/13 03:14:55;;;;;;;57.53;25.92;;;6.80;99.90;;;;;;5053616;28;20163;-79
2022/04/13 03:17:21;;;;;;;55.35;24.83;;;6.80;99.90;;;;;;5052351;28;20028;-79
2022/04/13 03:19:47;;;;;;;48.65;24.05;;;6.70;99.90;;;;;;5053369;28;20029;-79
2022/04/13 03:22:13;;;;;;;50.15;24.70;;;6.70;99.90;;;;;;5053591;28;20029;-79
2022/04/13 03:24:38;;;;;;;60.33;28.20;;;6.60;99.90;;;;;;5052977;28;20021;-78
2022/04/13 03:27:04;;;;;;;54.63;24.05;;;6.60;99.90;;;;;;5053401;28;20349;-78
2022/04/13 03:29:30;;;;;;;47.90;24.55;;;6.50;99.90;;;;;;5052955;28;20420;-79
2022/04/13 03:31:55;;;;;;;51.20;25.60;;;6.40;99.90;;;;;;5053729;28;20091;-78
2022/04/13 03:34:21;;;;;;;46.45;24.13;;;6.40;99.90;;;;;;5053076;28;20060;-77
2022/04/13 03:36:48;;;;;;;60.40;28.98;;;6.40;99.90;;;;;;5052895;28;20053;-78
2022/04/13 03:39:14;;;;;;;61.15;27.60;;;6.30;99.90;;;;;;5053610;28;20039;-79
2022/04/13 03:41:40;;;;;;;58.60;28.60;;;6.20;99.90;;;;;;5054326;28;20021;-79
2022/04/13 03:44:06;;;;;;;67.03;30.65;;;6.20;99.90;;;;;;5056996;28;20094;-80
2022/04/13 03:46:32;;;;;;;58.60;29.42;;;6.20;99.90;;;;;;5057043;28;20024;-78
2022/04/13 03:48:58;;;;;;;61.70;31.63;;;6.20;99.90;;;;;;5057130;28;20031;-78
2022/04/13 03:51:24;;;;;;;73.75;37.28;;;6.20;99.90;;;;;;5055621;28;20432;-79
2022/04/13 03:53:50;;;;;;;110.38;52.55;;;6.20;99.90;;;;;;5056947;28;20064;-79
2022/04/13 03:56:16;;;;;;;155.40;74.25;;;6.20;99.90;;;;;;5057021;28;20468;-79
2022/04/13 03:58:42;;;;;;;137.57;64.40;;;6.10;99.90;;;;;;5056350;28;20041;-79
2022/04/13 04:01:08;;;;;;;114.38;53.42;;;6.10;99.90;;;;;;5056454;28;20064;-79
2022/04/13 04:03:35;;;;;;;116.10;53.33;;;6.00;99.90;;;;;;5056621;28;20531;-78
2022/04/13 04:06:01;;;;;;;118.05;53.15;;;5.90;99.90;;;;;;5055285;28;20056;-78
2022/04/13 04:08:28;;;;;;;81.15;38.83;;;5.90;99.90;;;;;;5056687;28;20017;-78
2022/04/13 04:10:54;;;;;;;77.47;35.13;;;5.80;99.90;;;;;;5055583;28;20035;-78
2022/04/13 04:13:21;;;;;;;62.53;29.10;;;5.80;99.90;;;;;;5056421;28;20028;-79
2022/04/13 04:15:47;;;;;;;127.85;59.25;;;5.80;99.90;;;;;;5056818;28;20025;-78
2022/04/13 04:18:12;;;;;;;82.90;41.28;;;5.90;99.90;;;;;;5055285;28;20032;-79
2022/04/13 04:20:38;;;;;;;130.90;59.00;;;5.90;99.90;;;;;;5056311;28;20052;-79
2022/04/13 04:23:04;;;;;;;123.20;53.28;;;5.90;99.90;;;;;;5056075;28;20103;-79
2022/04/13 04:25:30;;;;;;;162.70;73.07;;;5.90;99.90;;;;;;5056194;28;20475;-79
2022/04/13 04:27:55;;;;;;;276.77;134.60;;;5.90;99.90;;;;;;5056059;28;20040;-78
2022/04/13 04:30:21;;;;;;;199.35;93.60;;;6.00;99.90;;;;;;5055017;28;20029;-79
2022/04/13 04:32:47;;;;;;;136.02;68.07;;;6.00;99.90;;;;;;5056171;28;20033;-78
2022/04/13 04:35:13;;;;;;;92.57;39.47;;;6.00;99.90;;;;;;5056774;28;20031;-78
2022/04/13 04:37:39;;;;;;;69.93;31.55;;;6.00;99.90;;;;;;5055846;28;20033;-78
2022/04/13 04:40:06;;;;;;;48.85;25.10;;;6.10;99.90;;;;;;5055931;28;20068;-78
2022/04/13 04:42:42;;;;;;;69.57;33.42;;;6.10;99.90;;;;;;5054753;28;20025;-78
2022/04/13 04:45:09;;;;;;;80.10;33.42;;;6.20;99.90;;;;;;5056115;28;20043;-79
2022/04/13 04:47:34;;;;;;;59.28;25.83;;;6.20;99.90;;;;;;5055596;28;20025;-79
2022/04/13 04:50:00;;;;;;;53.63;26.27;;;6.30;99.90;;;;;;5054621;28;20460;-77
2022/04/13 04:52:26;;;;;;;67.45;30.70;;;6.30;99.90;;;;;;5055569;28;20033;-78
2022/04/13 04:54:51;;;;;;;74.03;35.40;;;6.40;99.90;;;;;;5055636;28;20021;-78
2022/04/13 04:57:17;;;;;;;75.10;34.00;;;6.50;99.90;;;;;;5055535;28;20105;-78
2022/04/13 04:59:43;;;;;;;76.18;37.50;;;6.60;99.90;;;;;;5055785;28;20085;-78
2022/04/13 05:02:08;;;;;;;70.15;28.45;;;6.70;99.90;;;;;;5053873;28;20111;-78
2022/04/13 05:04:34;;;;;;;57.42;28.13;;;6.80;99.90;;;;;;5053632;28;20115;-79
2022/04/13 05:07:00;;;;;;;58.25;30.20;;;6.90;99.90;;;;;;5054260;28;20033;-77
2022/04/13 05:09:28;;;;;;;51.05;22.30;;;6.90;99.90;;;;;;5053969;28;20029;-78
2022/04/13 05:11:53;;;;;;;53.42;22.35;;;7.00;99.90;;;;;;5054976;28;20021;-78
2022/04/13 05:14:20;;;;;;;45.40;21.00;;;7.20;99.90;;;;;;5054624;28;20123;-78
2022/04/13 05:16:46;;;;;;;63.10;28.73;;;7.20;99.90;;;;;;5054381;28;20055;-80
2022/04/13 05:19:15;;;;;;;43.80;20.65;;;7.30;99.90;;;;;;5053728;28;20032;-80
2022/04/13 05:21:41;;;;;;;29.45;16.42;;;7.40;99.90;;;;;;5054891;28;20155;-78
2022/04/13 05:24:07;;;;;;;28.98;15.65;;;7.50;99.90;;;;;;5054035;28;20119;-78
2022/04/13 05:26:32;;;;;;;68.30;35.55;;;7.60;99.90;;;;;;5055222;28;20511;-80
2022/04/13 05:28:58;;;;;;;66.28;27.92;;;7.80;99.90;;;;;;5055056;28;20127;-78
2022/04/13 05:31:24;;;;;;;57.97;27.52;;;7.90;99.90;;;;;;5055114;28;20052;-80
2022/04/13 05:33:50;;;;;;;46.10;25.73;;;8.00;99.90;;;;;;5053886;28;20387;-79
2022/04/13 05:36:15;;;;;;;41.45;23.33;;;8.10;99.90;;;;;;5053763;28;20060;-79
2022/04/13 05:38:42;;;;;;;32.88;19.25;;;8.30;99.90;;;;;;5055241;28;20033;-80
2022/04/13 05:41:08;;;;;;;38.42;18.05;;;8.30;99.90;;;;;;5054940;28;20029;-79
2022/04/13 05:43:36;;;;;;;35.83;17.45;;;8.50;99.90;;;;;;5054766;28;20025;-79
2022/04/13 05:46:02;;;;;;;39.25;19.95;;;8.60;99.90;;;;;;5054819;28;20021;-78
2022/04/13 05:48:28;;;;;;;38.55;18.85;;;8.70;99.90;;;;;;5054899;28;20032;-80
2022/04/13 05:50:54;;;;;;;46.47;21.17;;;8.90;99.90;;;;;;5054643;28;20029;-78
2022/04/13 05:53:21;;;;;;;39.03;19.70;;;9.00;99.90;;;;;;5054428;28;20025;-80
2022/04/13 05:55:49;;;;;;;40.50;21.08;;;9.20;99.90;;;;;;5055067;28;20032;-79
2022/04/13 05:58:14;;;;;;;43.58;21.92;;;9.40;99.90;;;;;;5054523;28;20021;-78
2022/04/13 06:00:40;;;;;;;45.88;21.92;;;9.50;99.90;;;;;;5054010;28;20060;-80
2022/04/13 06:03:06;;;;;;;45.80;21.50;;;9.50;99.90;;;;;;5054325;28;20481;-78
2022/04/13 06:05:32;;;;;;;38.92;19.05;;;9.70;99.90;;;;;;5053646;28;20033;-79
2022/04/13 06:07:58;;;;;;;37.78;17.70;;;10.00;99.90;;;;;;5054100;28;20059;-78
2022/04/13 06:10:23;;;;;;;37.63;17.52;;;10.10;98.60;;;;;;5054484;28;20102;-78
2022/04/13 06:12:49;;;;;;;31.35;16.02;;;10.10;94.60;;;;;;5053940;28;20036;-80
2022/04/13 06:15:15;;;;;;;35.85;16.73;;;10.30;95.70;;;;;;5054042;28;20021;-80
2022/04/13 06:17:41;;;;;;;38.83;18.27;;;10.50;94.90;;;;;;5052824;28;20021;-79
2022/04/13 06:20:08;;;;;;;37.22;18.00;;;10.60;92.80;;;;;;5054260;28;20087;-80
2022/04/13 06:22:41;;;;;;;37.58;17.15;;;10.80;93.60;;;;;;5054162;28;20480;-78
2022/04/13 06:25:09;;;;;;;35.13;15.40;;;11.00;92.90;;;;;;5053802;28;20147;-78
2022/04/13 06:27:35;;;;;;;29.52;12.38;;;11.10;89.10;;;;;;5054050;28;20107;-78
2022/04/13 06:30:01;;;;;;;29.30;11.77;;;11.20;77.50;;;;;;5052869;28;20055;-79
2022/04/13 06:32:37;;;;;;;23.27;11.27;;;11.30;76.50;;;;;;5053657;28;20017;-78
2022/04/13 06:35:04;;;;;;;22.70;11.48;;;11.50;74.40;;;;;;5054211;28;20021;-78
2022/04/13 06:37:30;;;;;;;23.52;11.20;;;11.70;76.90;;;;;;5052827;28;20029;-79
2022/04/13 06:39:56;;;;;;;22.27;10.80;;;11.60;73.30;;;;;;5052475;28;20037;-77
2022/04/13 06:42:22;;;;;;;21.50;10.20;;;11.90;71.90;;;;;;5053584;28;20463;-79
2022/04/13 06:44:53;;;;;;;23.95;11.35;;;12.00;71.00;;;;;;5053957;28;20067;-78
2022/04/13 06:47:18;;;;;;;29.27;11.50;;;12.10;70.80;;;;;;5053734;28;20108;-78
2022/04/13 06:49:47;;;;;;;25.67;11.77;;;12.30;71.40;;;;;;5053502;28;20425;-78
2022/04/13 06:52:13;;;;;;;29.05;12.48;;;12.40;73.20;;;;;;5053827;28;20025;-79
2022/04/13 06:54:40;;;;;;;23.98;12.55;;;12.70;70.20;;;;;;5053301;28;20033;-80
2022/04/13 06:57:06;;;;;;;25.20;10.48;;;12.90;68.80;;;;;;5052376;28;20078;-78
2022/04/13 06:59:32;;;;;;;26.40;11.68;;;13.10;68.90;;;;;;5052061;28;20435;-78
2022/04/13 07:01:57;;;;;;;24.23;13.82;;;13.20;70.20;;;;;;5053455;28;20021;-79
2022/04/13 07:04:23;;;;;;;20.38;9.38;;;13.40;68.00;;;;;;5053642;28;20067;-79
2022/04/13 07:06:50;;;;;;;15.90;7.28;;;13.50;63.20;;;;;;5053142;28;20380;-79
2022/04/13 07:09:15;;;;;;;25.58;9.13;;;13.50;60.90;;;;;;5053459;28;20384;-79
2022/04/13 07:11:41;;;;;;;18.55;8.55;;;13.50;61.20;;;;;;5053263;28;20025;-80
2022/04/13 07:14:07;;;;;;;19.63;6.80;;;13.80;60.40;;;;;;5053379;28;20104;-79
2022/04/13 07:16:33;;;;;;;14.57;6.80;;;13.80;58.40;;;;;;5055514;28;20021;-78
2022/04/13 07:18:58;;;;;;;18.75;7.80;;;13.90;58.90;;;;;;5057989;28;20032;-79
2022/04/13 07:21:24;;;;;;;18.13;7.63;;;14.00;58.00;;;;;;5056144;28;20118;-78
2022/04/13 07:23:50;;;;;;;20.08;7.65;;;14.10;55.50;;;;;;5057220;28;20086;-79
2022/04/13 07:26:16;;;;;;;18.77;5.85;;;14.20;56.70;;;;;;5057327;28;20506;-80
2022/04/13 07:28:41;;;;;;;14.73;6.75;;;14.30;55.90;;;;;;5057749;28;20029;-80
2022/04/13 07:31:07;;;;;;;15.57;7.15;;;14.40;56.20;;;;;;5057544;28;20042;-81
2022/04/13 07:33:34;;;;;;;19.27;6.95;;;14.30;56.10;;;;;;5057586;28;20515;-79
2022/04/13 07:35:59;;;;;;;17.75;6.68;;;14.70;57.50;;;;;;5057218;28;20029;-81
2022/04/13 07:38:25;;;;;;;13.90;6.63;;;15.00;55.70;;;;;;5055838;28;20029;-81
2022/04/13 07:40:51;;;;;;;18.42;8.55;;;15.10;55.00;;;;;;5057493;28;20076;-80
2022/04/13 07:43:16;;;;;;;24.42;7.53;;;15.40;55.10;;;;;;5057010;28;20100;-80
2022/04/13 07:45:43;;;;;;;17.13;6.72;;;15.50;53.40;;;;;;5055883;28;20055;-79
2022/04/13 07:48:09;;;;;;;11.43;5.78;;;15.60;53.60;;;;;;5056966;28;20025;-78
2022/04/13 07:50:35;;;;;;;13.93;6.07;;;15.60;50.60;;;;;;5055647;28;20116;-81
2022/04/13 07:53:00;;;;;;;12.73;5.35;;;15.80;50.50;;;;;;5056538;28;20452;-78
2022/04/13 07:55:26;;;;;;;7.55;4.07;;;16.00;49.80;;;;;;5056161;28;20102;-79
2022/04/13 07:57:52;;;;;;;6.75;3.75;;;15.80;48.30;;;;;;5055377;28;20040;-79
2022/04/13 08:00:18;;;;;;;7.43;4.50;;;15.60;45.40;;;;;;5056424;28;20048;-77
2022/04/13 08:02:44;;;;;;;14.35;3.90;;;15.90;46.70;;;;;;5056859;28;20059;-78
2022/04/13 08:05:15;;;;;;;12.95;3.70;;;16.30;48.40;;;;;;5056893;28;20029;-79
2022/04/13 08:07:41;;;;;;;9.10;3.13;;;16.40;43.90;;;;;;5056799;28;20029;-80
2022/04/13 08:10:08;;;;;;;7.25;3.42;;;16.20;43.70;;;;;;5056550;28;20036;-77
2022/04/13 08:12:34;;;;;;;9.18;3.38;;;16.70;46.40;;;;;;5056353;28;20108;-80
2022/04/13 08:15:02;;;;;;;8.82;3.70;;;16.80;41.70;;;;;;5056382;28;20105;-78
2022/04/13 08:17:28;;;;;;;7.22;3.47;;;16.80;42.30;;;;;;5056744;28;20024;-78
2022/04/13 08:19:54;;;;;;;8.07;3.40;;;17.20;42.30;;;;;;5056448;28;20037;-80
2022/04/13 08:22:24;;;;;;;5.28;3.03;;;17.20;39.80;;;;;;5055352;28;20032;-80
2022/04/13 08:24:50;;;;;;;7.75;3.35;;;17.30;41.00;;;;;;5056569;28;20025;-77
2022/04/13 08:27:16;;;;;;;9.73;3.85;;;17.70;41.80;;;;;;5054407;28;20033;-79
2022/04/13 08:29:42;;;;;;;9.30;3.75;;;17.40;40.20;;;;;;5055192;28;20028;-79
2022/04/13 08:32:08;;;;;;;9.07;4.32;;;17.70;40.10;;;;;;5056291;28;20027;-79
2022/04/13 08:34:34;;;;;;;10.02;4.18;;;17.80;37.00;;;;;;5056077;28;20025;-80
2022/04/13 08:36:59;;;;;;;9.27;3.97;;;17.60;37.60;;;;;;5054967;28;20029;-78
2022/04/13 08:39:25;;;;;;;6.97;4.07;;;18.00;40.90;;;;;;5056002;28;20043;-78
2022/04/13 08:42:03;;;;;;;9.13;4.20;;;18.30;37.00;;;;;;5054794;28;20053;-78
2022/04/13 08:44:47;;;;;;;6.30;4.20;;;18.70;38.40;;;;;;5054809;28;20075;-77
2022/04/13 08:47:17;;;;;;;8.52;4.32;;;18.50;39.00;;;;;;5056093;28;20061;-79
2022/04/13 08:49:45;;;;;;;6.75;3.97;;;18.50;37.90;;;;;;5055795;28;20382;-78
2022/04/13 08:52:14;;;;;;;13.48;4.65;;;18.70;37.50;;;;;;5054495;28;20029;-78
2022/04/13 08:55:03;;;;;;;10.35;4.13;;;18.80;39.20;;;;;;5055638;28;20066;-78
2022/04/13 08:57:34;;;;;;;6.88;4.43;;;18.80;34.60;;;;;;5055937;28;20029;-78
2022/04/13 09:00:10;;;;;;;7.13;4.03;;;18.80;37.00;;;;;;5055594;28;20448;-77
2022/04/13 09:03:11;;;;;;;8.23;3.97;;;18.90;33.90;;;;;;5054436;28;20087;-78
2022/04/13 09:05:39;;;;;;;10.30;4.07;;;19.30;33.70;;;;;;5054032;28;20037;-77
2022/04/13 09:08:23;;;;;;;6.32;4.10;;;19.00;34.60;;;;;;5055437;28;20040;-77
2022/04/13 09:10:53;;;;;;;8.75;3.67;;;19.40;34.80;;;;;;5055691;28;20055;-77
2022/04/13 09:13:21;;;;;;;7.03;3.95;;;19.70;33.00;;;;;;5055461;28;20025;-78
2022/04/13 09:15:48;;;;;;;13.05;4.20;;;19.30;35.20;;;;;;5055206;28;20066;-77
2022/04/13 09:18:14;;;;;;;11.18;4.18;;;19.50;32.20;;;;;;5055653;28;20025;-78
2022/04/13 09:20:40;;;;;;;6.30;4.13;;;20.00;33.10;;;;;;5055253;28;20029;-78
2022/04/13 09:23:06;;;;;;;10.27;4.68;;;20.30;32.50;;;;;;5055083;28;20036;-79
2022/04/13 09:25:34;;;;;;;11.13;5.00;;;20.50;33.80;;;;;;5055387;28;20029;-77
2022/04/13 09:28:01;;;;;;;8.43;4.65;;;20.70;30.80;;;;;;5054788;28;20419;-77
2022/04/13 09:30:28;;;;;;;8.98;5.20;;;20.40;30.10;;;;;;5055075;28;20079;-77
2022/04/13 09:32:54;;;;;;;8.15;5.53;;;20.20;31.60;;;;;;5053918;28;20021;-77
2022/04/13 09:35:21;;;;;;;9.00;5.82;;;20.30;33.20;;;;;;5053676;28;20029;-77
2022/04/13 09:37:47;;;;;;;13.38;5.25;;;20.40;34.90;;;;;;5054991;28;20021;-77
2022/04/13 09:40:39;;;;;;;12.93;6.18;;;20.80;31.50;;;;;;5053964;28;20029;-78
2022/04/13 09:43:12;;;;;;;11.27;6.22;;;21.20;32.00;;;;;;5053830;28;20083;-79
2022/04/13 09:45:42;;;;;;;7.18;5.00;;;21.10;32.00;;;;;;5054874;28;20023;-78
2022/04/13 09:48:19;;;;;;;8.38;5.47;;;21.00;30.90;;;;;;5054679;28;20108;-78
2022/04/13 09:50:46;;;;;;;11.85;6.07;;;21.30;33.80;;;;;;5054635;28;20029;-79
2022/04/13 09:53:14;;;;;;;10.32;5.78;;;21.50;31.10;;;;;;5053567;28;20102;-77
2022/04/13 09:55:44;;;;;;;10.32;6.05;;;21.40;31.50;;;;;;5054863;28;20081;-77
2022/04/13 09:58:14;;;;;;;10.35;5.65;;;21.30;30.70;;;;;;5054633;28;20025;-79
2022/04/13 10:00:42;;;;;;;10.25;5.55;;;21.50;31.70;;;;;;5052972;28;20045;-77
2022/04/13 10:03:12;;;;;;;7.85;5.25;;;21.40;33.80;;;;;;5054081;28;20025;-77
2022/04/13 10:05:41;;;;;;;8.88;4.97;;;21.30;30.60;;;;;;5053204;28;20495;-77
2022/04/13 10:08:09;;;;;;;7.72;5.18;;;21.60;29.60;;;;;;5054288;28;20029;-78
2022/04/13 10:10:38;;;;;;;12.35;7.85;;;21.50;29.30;;;;;;5054339;28;20371;-76
2022/04/13 10:13:04;;;;;;;10.32;4.82;;;21.00;29.80;;;;;;5053124;28;20025;-77
2022/04/13 10:15:30;;;;;;;9.98;4.47;;;21.00;30.50;;;;;;5052971;28;20029;-76
2022/04/13 10:18:01;;;;;;;7.30;4.85;;;21.20;29.30;;;;;;5054276;28;20391;-79
2022/04/13 10:20:46;;;;;;;11.63;6.05;;;21.70;28.00;;;;;;5054061;28;20116;-77
2022/04/13 10:23:13;;;;;;;8.77;5.85;;;22.00;30.70;;;;;;5052874;28;20112;-78
2022/04/13 10:25:39;;;;;;;12.27;6.18;;;22.10;29.90;;;;;;5054156;28;20456;-77
2022/04/13 10:28:05;;;;;;;10.20;6.80;;;21.80;28.60;;;;;;5052557;28;20035;-76
2022/04/13 10:30:34;;;;;;;10.07;6.38;;;21.70;29.60;;;;;;5053920;28;20029;-80
2022/04/13 10:33:05;;;;;;;10.07;5.85;;;21.50;31.80;;;;;;5052592;28;20028;-76
2022/04/13 10:35:33;;;;;;;11.50;6.10;;;21.00;29.80;;;;;;5053766;28;20460;-76
2022/04/13 10:38:03;;;;;;;9.07;5.80;;;22.10;29.60;;;;;;5052375;28;20127;-76
2022/04/13 10:40:41;;;;;;;8.77;5.80;;;22.00;28.70;;;;;;5053540;28;20068;-84
2022/04/13 10:43:10;;;;;;;12.18;5.93;;;21.90;29.80;;;;;;5053948;28;20029;-78
2022/04/13 10:45:39;;;;;;;9.85;6.55;;;21.90;28.00;;;;;;5052087;28;20079;-78
2022/04/13 10:48:09;;;;;;;8.82;5.90;;;22.10;28.60;;;;;;5052324;28;20040;-76
2022/04/13 10:50:57;;;;;;;11.27;5.93;;;22.30;26.10;;;;;;5053239;28;20499;-78
2022/04/13 10:53:46;;;;;;;8.73;5.88;;;22.60;28.50;;;;;;5053577;28;20029;-79
2022/04/13 10:56:13;;;;;;;10.15;6.72;;;22.80;29.80;;;;;;5054057;28;20116;-79
2022/04/13 10:58:58;;;;;;;7.72;5.72;;;22.60;28.10;;;;;;5051965;28;20040;-78
2022/04/13 11:01:30;;;;;;;9.60;6.70;;;22.70;28.30;;;;;;5053286;28;20508;-78
2022/04/13 11:03:57;;;;;;;12.48;6.28;;;22.70;29.00;;;;;;5053530;28;20494;-79
2022/04/13 11:06:24;;;;;;;12.48;7.00;;;22.60;27.70;;;;;;5053467;28;20057;-78
2022/04/13 11:09:09;;;;;;;8.50;6.00;;;23.50;29.10;;;;;;5053296;28;20021;-78
2022/04/13 11:11:36;;;;;;;11.00;6.53;;;22.80;26.30;;;;;;5053271;28;20051;-77
2022/04/13 11:14:19;;;;;;;8.60;6.32;;;22.90;27.90;;;;;;5052638;28;20446;-77
2022/04/13 11:16:45;;;;;;;10.20;6.50;;;22.80;27.70;;;;;;5053311;28;20021;-78
2022/04/13 11:19:10;;;;;;;13.18;7.57;;;23.40;28.50;;;;;;5053326;28;20029;-79
2022/04/13 11:22:02;;;;;;;15.98;6.20;;;23.20;26.50;;;;;;5053312;28;20045;-78
2022/04/13 11:24:33;;;;;;;7.78;5.82;;;23.30;26.00;;;;;;5031120;28;20033;-77
2022/04/13 11:26:58;;;;;;;9.75;6.55;;;23.20;28.70;;;;;;5031033;28;20026;-77
2022/04/13 11:29:33;;;;;;;9.55;6.55;;;23.80;26.50;;;;;;5031261;28;20038;-79
2022/04/13 11:32:04;;;;;;;8.40;6.60;;;;;;;;;;5030943;28;20069;-76
2022/04/13 11:34:35;;;;;;;12.57;7.35;;;23.90;27.50;;;;;;5014326;28;20036;-78
2022/04/13 11:37:04;;;;;;;11.40;8.23;;;23.20;27.20;;;;;;5031110;28;20033;-78
2022/04/13 11:39:59;;;;;;;11.55;5.57;;;22.90;27.10;;;;;;5014224;28;20080;-77
2022/04/13 11:42:32;;;;;;;12.00;7.40;;;23.00;26.90;;;;;;5031092;28;20489;-78
2022/04/13 11:45:14;;;;;;;10.93;6.03;;;;;;;;;;5014496;28;20500;-79
2022/04/13 11:47:40;;;;;;;;;;;23.60;26.30;;;;;;5014762;28;20030;-79
2022/04/13 11:50:14;;;;;;;10.85;7.22;;;23.70;25.80;;;;;;5030978;28;19905;-78
2022/04/13 11:53:02;;;;;;;10.95;6.53;;;23.60;26.00;;;;;;5031024;28;20029;-78
2022/04/13 11:55:39;;;;;;;9.73;5.90;;;23.30;24.70;;;;;;5030851;28;20440;-78
2022/04/13 11:58:08;;;;;;;7.75;5.60;;;23.60;24.70;;;;;;5030869;28;20104;-80
2022/04/13 12:00:43;;;;;;;15.95;10.18;;;23.60;26.10;;;;;;5035148;28;20049;-78
2022/04/13 12:03:15;;;;;;;8.82;6.40;;;23.20;25.90;;;;;;5053955;28;20036;-78
2022/04/13 12:05:44;;;;;;;10.23;8.25;;;23.40;26.00;;;;;;5056383;28;20112;-77
2022/04/13 12:08:11;;;;;;;8.98;5.90;;;23.60;25.90;;;;;;5056415;28;20100;-78
2022/04/13 12:10:37;;;;;;;10.88;6.95;;;23.50;23.80;;;;;;5055163;28;20056;-80
2022/04/13 12:13:03;;;;;;;7.65;5.43;;;23.80;24.80;;;;;;5055325;28;20032;-79
2022/04/13 12:15:51;;;;;;;9.43;5.95;;;23.40;23.40;;;;;;5056338;28;20029;-78
2022/04/13 12:18:22;;;;;;;11.82;6.22;;;23.50;25.90;;;;;;5056463;28;20025;-77
2022/04/13 12:20:48;;;;;;;10.30;5.30;;;23.30;22.70;;;;;;5055168;28;20037;-80
2022/04/13 12:23:14;;;;;;;12.95;6.15;;;23.60;23.40;;;;;;5054839;28;20033;-79
2022/04/13 12:25:44;;;;;;;8.43;5.57;;;23.80;25.60;;;;;;5056454;28;20024;-78
2022/04/13 12:28:10;;;;;;;8.65;4.80;;;23.40;24.50;;;;;;5056266;28;20429;-79
2022/04/13 12:30:35;;;;;;;9.13;4.68;;;23.50;23.40;;;;;;5056316;28;20064;-79
2022/04/13 12:33:21;;;;;;;6.30;4.80;;;23.90;23.40;;;;;;5054801;28;20426;-78
2022/04/13 12:36:01;;;;;;;7.80;4.70;;;24.00;23.40;;;;;;5054220;28;20032;-80
2022/04/13 12:38:28;;;;;;;9.80;5.03;;;23.60;24.20;;;;;;5056329;28;20021;-79
2022/04/13 12:41:13;;;;;;;6.55;3.72;;;23.60;24.50;;;;;;5055519;28;20450;-75
2022/04/13 12:43:43;;;;;;;6.28;4.03;;;23.90;23.40;;;;;;5055849;28;20464;-80